Time;durP1;ratioP1;P1;durP2;ratioP2;P2;SDS_P1;SDS_P2;PMS_P1;PMS_P2;Temp;Humidity;BMP_temperature;BMP_pressure;BME280_temperature;BME280_humidity;BME280_pressure;Samples;Min_cycle;Max_cycle;Signal;HPM_P1;HPM_P2
2021/10/07 11:14:17;;;;;;;7.45;5.32;;;18.40;51.10;;;;;;5715604;22;20929;-61
2021/10/07 11:16:45;;;;;;;8.75;5.20;;;18.50;45.30;;;;;;5018455;28;20100;-61
2021/10/07 11:19:24;;;;;;;8.15;7.05;;;18.70;46.10;;;;;;5017424;28;20484;-61
2021/10/07 11:22:07;;;;;;;10.63;8.20;;;18.90;42.20;;;;;;5016115;28;20461;-61
2021/10/07 11:24:32;;;;;;;8.35;5.15;;;19.20;41.50;;;;;;5015873;28;20030;-61
2021/10/07 11:26:58;;;;;;;17.60;11.82;;;19.30;41.80;;;;;;5015909;28;20120;-61
2021/10/07 11:29:23;;;;;;;10.05;5.72;;;19.40;42.20;;;;;;5016841;28;20128;-61
2021/10/07 11:31:50;;;;;;;12.88;7.05;;;19.70;40.10;;;;;;5015810;28;20064;-61
2021/10/07 11:34:15;;;;;;;5.88;4.03;;;19.70;38.90;;;;;;5015653;28;20034;-61
2021/10/07 11:36:41;;;;;;;5.05;3.10;;;19.90;38.60;;;;;;5015639;28;20190;-61
2021/10/07 11:39:06;;;;;;;7.28;4.60;;;19.90;37.00;;;;;;5015526;28;20116;-61
2021/10/07 11:41:33;;;;;;;15.07;7.90;;;20.00;38.00;;;;;;5014275;28;20042;-61
2021/10/07 11:44:02;;;;;;;9.90;5.32;;;20.20;38.90;;;;;;5015384;28;20161;-61
2021/10/07 11:46:28;;;;;;;4.97;2.70;;;20.30;38.40;;;;;;5015323;28;20078;-61
2021/10/07 11:48:56;;;;;;;5.13;3.42;;;20.40;37.50;;;;;;5015375;28;20498;-61
2021/10/07 11:51:25;;;;;;;2.95;2.30;;;20.60;35.80;;;;;;5015916;28;20049;-62
2021/10/07 11:53:53;;;;;;;4.00;3.20;;;20.60;34.70;;;;;;5030439;28;20038;-62
2021/10/07 11:56:26;;;;;;;6.40;2.47;;;20.60;34.20;;;;;;5015714;28;20037;-62
2021/10/07 11:58:54;;;;;;;5.13;3.40;;;20.60;32.50;;;;;;5015547;28;20131;-61
2021/10/07 12:01:27;;;;;;;6.75;3.08;;;20.70;34.70;;;;;;5015282;28;20104;-62
2021/10/07 12:03:58;;;;;;;3.60;2.20;;;20.90;34.00;;;;;;5015227;28;20514;-61
2021/10/07 12:06:25;;;;;;;2.25;1.92;;;20.90;32.80;;;;;;5013452;28;20054;-61
2021/10/07 12:08:51;;;;;;;4.97;2.55;;;20.80;34.10;;;;;;5011698;28;20034;-62
2021/10/07 12:11:22;;;;;;;5.72;2.38;;;20.60;33.90;;;;;;5011603;28;20045;-61
2021/10/07 12:13:50;;;;;;;6.15;2.15;;;20.50;33.50;;;;;;5014995;28;20036;-62
2021/10/07 12:16:24;;;;;;;4.43;2.15;;;20.50;33.40;;;;;;5013798;28;20058;-62
2021/10/07 12:18:56;;;;;;;5.38;2.53;;;20.30;28.70;;;;;;5015029;28;20070;-62
2021/10/07 12:21:30;;;;;;;2.95;1.63;;;20.30;31.20;;;;;;5013846;28;20041;-62
2021/10/07 12:24:03;;;;;;;4.55;1.92;;;20.10;30.90;;;;;;5013564;28;20042;-62
2021/10/07 12:26:35;;;;;;;4.22;1.70;;;20.00;30.60;;;;;;5013040;28;20046;-62
2021/10/07 12:29:17;;;;;;;3.88;1.80;;;20.00;30.80;;;;;;5011944;28;20034;-62
2021/10/07 12:31:48;;;;;;;8.13;3.50;;;20.00;33.50;;;;;;5013401;28;20092;-62
2021/10/07 12:34:14;;;;;;;4.50;2.03;;;20.00;33.20;;;;;;5013631;28;20037;-62
2021/10/07 12:36:48;;;;;;;4.55;1.90;;;20.00;34.20;;;;;;5012531;28;20030;-62
2021/10/07 12:39:28;;;;;;;2.53;1.58;;;20.00;32.10;;;;;;5014024;28;20399;-62
2021/10/07 12:41:57;;;;;;;4.30;3.05;;;20.10;33.30;;;;;;5013321;28;20088;-62
2021/10/07 12:44:25;;;;;;;3.65;1.90;;;20.20;34.50;;;;;;5025061;28;20116;-62
2021/10/07 12:46:53;;;;;;;5.65;2.65;;;20.40;34.70;;;;;;5013987;28;20045;-62
2021/10/07 12:49:42;;;;;;;2.72;2.10;;;20.40;34.50;;;;;;5010316;28;20030;-62
2021/10/07 12:52:22;;;;;;;3.80;1.90;;;20.50;34.30;;;;;;5013271;28;20108;-62
2021/10/07 12:55:07;;;;;;;4.25;1.80;;;20.50;32.70;;;;;;5010916;28;20045;-62
2021/10/07 12:57:46;;;;;;;4.10;1.75;;;20.70;32.70;;;;;;5010857;28;20048;-61
2021/10/07 13:00:14;;;;;;;4.00;1.90;;;21.10;32.70;;;;;;5012553;28;20048;-62
2021/10/07 13:02:40;;;;;;;4.93;2.20;;;21.40;30.50;;;;;;5013027;28;20029;-62
2021/10/07 13:05:12;;;;;;;3.28;2.03;;;21.50;30.80;;;;;;5005182;28;20038;-61
2021/10/07 13:07:38;;;;;;;6.38;4.03;;;21.70;30.40;;;;;;5005291;28;20613;-62
2021/10/07 13:10:04;;;;;;;7.68;3.33;;;21.80;30.00;;;;;;5010405;28;20236;-61
2021/10/07 13:12:30;;;;;;;3.85;1.58;;;21.90;27.70;;;;;;5013371;28;20057;-61
2021/10/07 13:14:56;;;;;;;3.03;1.15;;;21.70;27.80;;;;;;5012372;28;20077;-61
2021/10/07 13:17:22;;;;;;;2.88;1.38;;;21.70;28.70;;;;;;5012976;28;20030;-61
2021/10/07 13:19:48;;;;;;;3.95;1.15;;;21.60;28.90;;;;;;5012779;28;20038;-62
2021/10/07 13:22:14;;;;;;;3.28;0.68;;;21.50;28.70;;;;;;5010736;28;20037;-61
2021/10/07 13:24:40;;;;;;;0.98;0.60;;;21.50;28.00;;;;;;5012965;28;20494;-61
2021/10/07 13:27:09;;;;;;;2.38;0.90;;;21.50;27.80;;;;;;5013479;28;20096;-61
2021/10/07 13:29:35;;;;;;;1.40;1.30;;;21.60;28.20;;;;;;5012802;28;20038;-61
2021/10/07 13:32:02;;;;;;;3.67;1.05;;;21.80;28.50;;;;;;5013471;28;20483;-61
2021/10/07 13:34:27;;;;;;;2.50;1.23;;;22.00;27.90;;;;;;5012452;28;20501;-61
2021/10/07 13:36:53;;;;;;;4.20;1.20;;;21.90;27.20;;;;;;5013679;28;20034;-62
2021/10/07 13:39:19;;;;;;;2.15;0.75;;;22.20;26.10;;;;;;5012672;28;20491;-61
2021/10/07 13:41:44;;;;;;;3.97;1.33;;;22.50;26.30;;;;;;5013065;28;20033;-61
2021/10/07 13:44:10;;;;;;;2.08;0.75;;;22.70;28.70;;;;;;5012106;28;20034;-61
2021/10/07 13:46:35;;;;;;;1.75;0.60;;;22.70;27.30;;;;;;5013312;28;20183;-61
2021/10/07 13:49:02;;;;;;;1.23;0.88;;;22.50;27.60;;;;;;5012424;28;20065;-61
2021/10/07 13:51:27;;;;;;;2.10;0.90;;;22.40;27.30;;;;;;5013158;28;20052;-61
2021/10/07 13:53:53;;;;;;;1.08;1.05;;;22.30;27.40;;;;;;5012098;28;20487;-61
2021/10/07 13:56:19;;;;;;;1.95;1.00;;;22.30;27.30;;;;;;4994353;28;20030;-61
2021/10/07 13:58:45;;;;;;;0.88;0.70;;;22.20;27.60;;;;;;5005509;28;20042;-61
2021/10/07 14:01:12;;;;;;;1.63;0.55;;;22.20;26.80;;;;;;5005291;28;20038;-61
2021/10/07 14:03:37;;;;;;;1.38;0.63;;;22.10;26.40;;;;;;5002063;28;20033;-61
2021/10/07 14:06:04;;;;;;;2.80;0.73;;;21.90;25.20;;;;;;5002419;28;20042;-61
2021/10/07 14:08:30;;;;;;;2.70;0.70;;;21.80;27.30;;;;;;5010227;28;20074;-61
2021/10/07 14:11:04;;;;;;;0.63;0.50;;;21.60;28.00;;;;;;5011044;28;20041;-61
2021/10/07 14:13:29;;;;;;;2.92;0.40;;;21.40;25.80;;;;;;5002309;28;20041;-61
2021/10/07 14:15:55;;;;;;;4.07;0.73;;;21.20;26.70;;;;;;5002173;28;20399;-61
2021/10/07 14:18:21;;;;;;;3.25;0.40;;;21.10;26.70;;;;;;5007991;28;20038;-61
2021/10/07 14:20:47;;;;;;;2.45;0.60;;;21.00;27.20;;;;;;5004692;28;20033;-61
2021/10/07 14:23:12;;;;;;;1.52;0.50;;;20.90;27.80;;;;;;5008378;28;20041;-61
2021/10/07 14:25:38;;;;;;;0.50;0.50;;;21.00;27.30;;;;;;5011170;28;20091;-61
2021/10/07 14:28:04;;;;;;;4.30;1.55;;;21.00;27.70;;;;;;5006343;28;20113;-61
2021/10/07 14:30:32;;;;;;;3.83;1.67;;;21.00;27.90;;;;;;5007445;28;20406;-61
2021/10/07 14:32:58;;;;;;;1.52;0.90;;;21.10;27.70;;;;;;5012836;28;20084;-62
2021/10/07 14:35:24;;;;;;;2.92;0.70;;;21.10;27.30;;;;;;5012096;28;20442;-61
2021/10/07 14:37:49;;;;;;;2.00;0.50;;;21.50;26.90;;;;;;5010263;28;20045;-61
2021/10/07 14:40:15;;;;;;;2.03;0.50;;;21.60;26.30;;;;;;5009621;28;20431;-61
2021/10/07 14:42:41;;;;;;;0.40;0.40;;;21.70;24.40;;;;;;5022335;28;20062;-61
2021/10/07 14:45:08;;;;;;;2.15;0.40;;;21.90;24.60;;;;;;5010735;28;20034;-62
2021/10/07 14:47:35;;;;;;;1.13;0.50;;;22.10;24.10;;;;;;5011672;28;20053;-61
2021/10/07 14:50:00;;;;;;;0.60;0.38;;;22.30;23.70;;;;;;5011588;28;20030;-61
2021/10/07 14:52:26;;;;;;;1.63;0.38;;;22.40;23.70;;;;;;5012555;28;20510;-61
2021/10/07 14:54:51;;;;;;;0.43;0.30;;;22.50;23.50;;;;;;5008157;28;20034;-61
2021/10/07 14:57:17;;;;;;;3.42;0.40;;;22.40;23.50;;;;;;4996594;28;20193;-61
2021/10/07 14:59:43;;;;;;;1.23;0.50;;;22.50;20.20;;;;;;5001182;28;20038;-61
2021/10/07 15:02:11;;;;;;;0.90;0.40;;;22.60;22.30;;;;;;5014972;28;20041;-62
2021/10/07 15:04:38;;;;;;;0.50;0.40;;;22.60;22.90;;;;;;5013076;28;20074;-61
2021/10/07 15:07:05;;;;;;;2.08;0.30;;;22.60;22.70;;;;;;5016312;28;20054;-61
2021/10/07 15:09:31;;;;;;;1.95;0.50;;;22.50;21.20;;;;;;5015232;28;20113;-61
2021/10/07 15:11:58;;;;;;;0.90;0.38;;;22.20;22.00;;;;;;5017388;28;20521;-61
2021/10/07 15:14:23;;;;;;;1.13;1.00;;;21.90;22.50;;;;;;5014890;28;20037;-60
2021/10/07 15:16:50;;;;;;;0.95;0.90;;;21.60;23.00;;;;;;5014572;28;20501;-61
2021/10/07 15:19:15;;;;;;;1.15;0.77;;;21.40;23.60;;;;;;5014816;28;20030;-61
2021/10/07 15:21:46;;;;;;;1.17;0.60;;;21.40;23.60;;;;;;5015923;28;20058;-61
2021/10/07 15:24:11;;;;;;;1.30;0.35;;;21.30;24.70;;;;;;5014517;28;20057;-61
2021/10/07 15:26:37;;;;;;;3.58;0.63;;;21.30;24.70;;;;;;4996356;28;20046;-61
2021/10/07 15:29:03;;;;;;;1.55;0.30;;;21.20;24.00;;;;;;4996587;28;20030;-62
2021/10/07 15:31:28;;;;;;;1.52;0.50;;;21.20;22.40;;;;;;5014716;28;20104;-61
2021/10/07 15:33:54;;;;;;;3.45;0.30;;;21.20;24.30;;;;;;5015571;28;20035;-61
2021/10/07 15:36:20;;;;;;;1.10;0.60;;;21.20;24.30;;;;;;5014577;28;20038;-61
2021/10/07 15:38:45;;;;;;;0.85;0.52;;;21.20;24.60;;;;;;5015910;28;20034;-61
2021/10/07 15:41:13;;;;;;;0.82;0.80;;;21.20;24.50;;;;;;5012140;28;20042;-61
2021/10/07 15:43:39;;;;;;;1.95;0.55;;;21.20;23.40;;;;;;5015580;28;20095;-61
2021/10/07 15:46:04;;;;;;;1.60;1.00;;;21.10;24.80;;;;;;5012507;28;20482;-62
2021/10/07 15:48:30;;;;;;;2.13;0.50;;;21.00;25.10;;;;;;5015448;28;20038;-62
2021/10/07 15:50:56;;;;;;;1.38;0.30;;;20.90;22.90;;;;;;5014489;28;20037;-62
2021/10/07 15:53:21;;;;;;;1.63;1.17;;;20.80;24.70;;;;;;5015443;28;20057;-62
2021/10/07 15:55:47;;;;;;;1.05;0.40;;;20.70;24.90;;;;;;5012377;28;20062;-62
2021/10/07 15:58:13;;;;;;;1.25;0.60;;;20.60;24.90;;;;;;5014081;28;20026;-62
2021/10/07 16:00:42;;;;;;;1.90;0.60;;;20.50;25.70;;;;;;5015271;28;20056;-61
2021/10/07 16:03:08;;;;;;;0.52;0.30;;;20.30;25.80;;;;;;5014672;28;20029;-61
2021/10/07 16:05:34;;;;;;;0.63;0.50;;;20.20;26.30;;;;;;5014782;28;20129;-61
2021/10/07 16:07:59;;;;;;;0.50;0.35;;;20.10;25.10;;;;;;5014382;28;20129;-61
2021/10/07 16:10:25;;;;;;;1.35;0.60;;;19.90;26.70;;;;;;5015007;28;20116;-61
2021/10/07 16:12:51;;;;;;;2.38;0.35;;;19.90;27.00;;;;;;5012311;28;20546;-61
2021/10/07 16:15:17;;;;;;;0.90;0.38;;;19.80;26.80;;;;;;5014447;28;20049;-63
2021/10/07 16:17:42;;;;;;;0.40;0.40;;;19.70;27.60;;;;;;5015186;28;20030;-61
2021/10/07 16:20:08;;;;;;;0.88;0.38;;;19.60;28.70;;;;;;5013809;28;20048;-62
2021/10/07 16:22:35;;;;;;;0.63;0.45;;;19.60;31.50;;;;;;5014283;28;20038;-60
2021/10/07 16:25:02;;;;;;;0.90;0.50;;;19.60;31.20;;;;;;5012300;28;20109;-60
2021/10/07 16:27:28;;;;;;;1.27;0.50;;;19.50;34.80;;;;;;5012108;28;20057;-61
2021/10/07 16:29:53;;;;;;;1.33;0.70;;;19.50;36.80;;;;;;5010851;28;20034;-61
2021/10/07 16:32:19;;;;;;;1.92;0.47;;;19.40;36.40;;;;;;5014613;28;20069;-61
2021/10/07 16:34:44;;;;;;;2.05;0.45;;;19.30;35.90;;;;;;5013634;28;20113;-61
2021/10/07 16:37:10;;;;;;;5.57;0.68;;;19.30;39.60;;;;;;5014654;28;20034;-61
2021/10/07 16:39:36;;;;;;;3.35;0.90;;;19.30;42.30;;;;;;5013313;28;20479;-61
2021/10/07 16:42:01;;;;;;;1.20;0.95;;;19.20;41.00;;;;;;5014520;28;20434;-61
2021/10/07 16:44:27;;;;;;;2.25;1.05;;;19.20;42.60;;;;;;5013278;28;20030;-61
2021/10/07 16:46:54;;;;;;;12.07;11.07;;;19.20;41.10;;;;;;5014096;28;20073;-61
2021/10/07 16:49:20;;;;;;;9.32;8.63;;;19.20;39.50;;;;;;5013427;28;20407;-61
2021/10/07 16:51:46;;;;;;;5.38;2.97;;;19.20;39.00;;;;;;5014111;28;20048;-61
2021/10/07 16:54:12;;;;;;;2.80;1.65;;;19.20;37.50;;;;;;5010338;28;20033;-61
2021/10/07 16:56:37;;;;;;;1.98;1.80;;;19.10;38.00;;;;;;5014287;28;20092;-60
2021/10/07 16:59:03;;;;;;;2.72;1.73;;;19.10;38.40;;;;;;5013216;28;20443;-60
2021/10/07 17:01:29;;;;;;;1.42;1.30;;;19.10;38.80;;;;;;5013874;28;20122;-61
2021/10/07 17:03:54;;;;;;;2.28;1.77;;;19.10;39.60;;;;;;5009085;28;20038;-61
2021/10/07 17:06:20;;;;;;;1.42;1.30;;;19.00;39.50;;;;;;5007821;28;20081;-61
2021/10/07 17:08:45;;;;;;;2.63;1.73;;;19.10;40.90;;;;;;5012316;28;20034;-60
2021/10/07 17:11:12;;;;;;;3.08;2.50;;;19.00;41.00;;;;;;5012810;28;20049;-60
2021/10/07 17:13:37;;;;;;;3.63;2.15;;;19.00;41.60;;;;;;5012693;28;20037;-60
2021/10/07 17:16:03;;;;;;;4.68;1.95;;;18.90;42.70;;;;;;5013479;28;20084;-61
2021/10/07 17:18:29;;;;;;;5.78;2.50;;;18.80;45.90;;;;;;5012464;28;20041;-61
2021/10/07 17:20:55;;;;;;;5.82;2.55;;;18.70;46.10;;;;;;5012846;28;20462;-60
2021/10/07 17:23:20;;;;;;;4.03;3.08;;;18.70;47.90;;;;;;5012733;28;20029;-61
2021/10/07 17:25:46;;;;;;;6.43;3.00;;;18.60;49.00;;;;;;5013632;28;20037;-61
2021/10/07 17:28:11;;;;;;;4.60;3.13;;;18.50;50.50;;;;;;5012762;28;20057;-61
2021/10/07 17:30:37;;;;;;;4.18;3.50;;;18.50;51.70;;;;;;5028448;28;20517;-61
2021/10/07 17:33:03;;;;;;;6.63;3.42;;;18.50;52.80;;;;;;5012655;28;20096;-61
2021/10/07 17:35:29;;;;;;;4.82;3.72;;;18.50;53.30;;;;;;5009044;28;20037;-61
2021/10/07 17:37:55;;;;;;;4.47;3.88;;;18.50;54.80;;;;;;5010918;28;20435;-61
2021/10/07 17:40:23;;;;;;;4.85;3.88;;;18.50;55.90;;;;;;5012803;28;20080;-61
2021/10/07 17:42:49;;;;;;;7.40;3.72;;;18.50;56.60;;;;;;5013288;28;20124;-61
2021/10/07 17:45:15;;;;;;;5.03;4.53;;;18.50;56.60;;;;;;5012217;28;20038;-61
2021/10/07 17:47:42;;;;;;;5.60;4.65;;;18.50;57.30;;;;;;5013857;28;20058;-61
2021/10/07 17:50:10;;;;;;;8.18;4.70;;;18.50;57.90;;;;;;5012629;28;20137;-61
2021/10/07 17:52:36;;;;;;;5.03;4.10;;;18.50;58.30;;;;;;5012217;28;20041;-61
2021/10/07 17:55:03;;;;;;;6.63;4.35;;;18.50;58.70;;;;;;5011558;28;20034;-61
2021/10/07 17:57:29;;;;;;;7.53;4.63;;;18.40;59.90;;;;;;5012252;28;20080;-61
2021/10/07 17:59:54;;;;;;;9.38;4.75;;;18.40;59.80;;;;;;5000746;28;20042;-61
2021/10/07 18:02:21;;;;;;;7.53;4.60;;;18.50;60.30;;;;;;4992626;28;20034;-61
2021/10/07 18:04:47;;;;;;;7.10;5.18;;;18.40;59.90;;;;;;5005321;28;20076;-61
2021/10/07 18:07:14;;;;;;;9.18;5.03;;;18.40;60.70;;;;;;5012741;28;20044;-61
2021/10/07 18:09:39;;;;;;;7.68;5.18;;;18.30;61.00;;;;;;5012241;28;20030;-61
2021/10/07 18:12:06;;;;;;;6.85;5.25;;;18.30;61.30;;;;;;5013127;28;20036;-61
2021/10/07 18:14:32;;;;;;;9.02;5.53;;;18.30;61.90;;;;;;5010433;28;20124;-61
2021/10/07 18:16:58;;;;;;;8.90;4.80;;;18.40;61.90;;;;;;5013009;28;20045;-61
2021/10/07 18:19:23;;;;;;;6.57;5.22;;;18.40;62.30;;;;;;5012425;28;20383;-61
2021/10/07 18:21:49;;;;;;;6.28;5.68;;;18.40;62.80;;;;;;5007994;28;20429;-61
2021/10/07 18:24:18;;;;;;;7.95;4.70;;;18.40;62.50;;;;;;5003886;28;20121;-61
2021/10/07 18:26:46;;;;;;;6.53;4.80;;;18.40;62.90;;;;;;5012688;28;20509;-61
2021/10/07 18:29:12;;;;;;;10.30;5.35;;;18.40;63.00;;;;;;5013539;28;20136;-61
2021/10/07 18:31:38;;;;;;;5.85;4.68;;;18.40;63.10;;;;;;5017006;28;20547;-61
2021/10/07 18:34:05;;;;;;;7.55;4.85;;;18.40;64.00;;;;;;5015942;28;20041;-61
2021/10/07 18:36:31;;;;;;;5.60;4.22;;;18.40;63.90;;;;;;5016651;28;20077;-61
2021/10/07 18:38:57;;;;;;;6.13;4.22;;;18.40;64.10;;;;;;5014400;28;20042;-60
2021/10/07 18:41:22;;;;;;;5.20;3.95;;;18.40;64.20;;;;;;5016829;28;20125;-61
2021/10/07 18:43:49;;;;;;;4.88;4.45;;;18.30;64.10;;;;;;5015895;28;20125;-61
2021/10/07 18:46:20;;;;;;;5.15;4.30;;;18.30;62.30;;;;;;5016350;28;20038;-61
2021/10/07 18:48:46;;;;;;;7.03;5.35;;;18.40;61.90;;;;;;5000888;28;20392;-61
2021/10/07 18:51:12;;;;;;;7.38;4.43;;;18.40;62.70;;;;;;5014395;28;20050;-61
2021/10/07 18:53:38;;;;;;;5.80;4.20;;;18.40;61.60;;;;;;5015236;28;20121;-61
2021/10/07 18:56:04;;;;;;;6.32;5.00;;;18.30;61.10;;;;;;5015699;28;20049;-61
2021/10/07 18:58:33;;;;;;;7.25;4.47;;;18.30;61.30;;;;;;5014159;28;20084;-61
2021/10/07 19:00:59;;;;;;;8.25;4.80;;;18.40;62.00;;;;;;5013530;28;20030;-61
2021/10/07 19:03:25;;;;;;;5.72;4.72;;;18.30;61.10;;;;;;5016184;28;20391;-61
2021/10/07 19:05:51;;;;;;;8.65;5.70;;;18.30;60.50;;;;;;5014353;28;20057;-61
2021/10/07 19:08:17;;;;;;;7.95;5.70;;;18.30;61.00;;;;;;5016093;28;20041;-61
2021/10/07 19:10:42;;;;;;;7.00;5.57;;;18.40;61.60;;;;;;5015068;28;20068;-61
2021/10/07 19:13:08;;;;;;;10.55;7.95;;;18.40;62.10;;;;;;5016241;28;20479;-61
2021/10/07 19:15:35;;;;;;;8.48;5.10;;;18.40;62.60;;;;;;5013190;28;20050;-61
2021/10/07 19:18:00;;;;;;;8.75;5.95;;;18.30;62.10;;;;;;5014456;28;20446;-61
2021/10/07 19:20:26;;;;;;;13.60;7.63;;;18.30;62.00;;;;;;5014245;28;20066;-61
2021/10/07 19:22:52;;;;;;;12.57;8.32;;;18.30;62.70;;;;;;5009521;28;20041;-61
2021/10/07 19:25:17;;;;;;;9.63;6.78;;;18.30;62.30;;;;;;5013969;28;20041;-61
2021/10/07 19:27:46;;;;;;;7.40;5.70;;;18.30;62.50;;;;;;5015166;28;20487;-61
2021/10/07 19:30:12;;;;;;;6.32;5.38;;;18.30;62.80;;;;;;5007148;28;20383;-61
2021/10/07 19:32:38;;;;;;;17.13;9.38;;;18.30;62.30;;;;;;5012409;28;20367;-61
2021/10/07 19:35:05;;;;;;;16.85;10.50;;;18.20;61.90;;;;;;5009290;28;20038;-62
2021/10/07 19:37:30;;;;;;;11.35;7.15;;;18.20;62.20;;;;;;5015813;28;20042;-61
2021/10/07 19:39:56;;;;;;;13.88;8.75;;;18.20;61.60;;;;;;5014207;28;20042;-62
2021/10/07 19:42:22;;;;;;;12.82;8.00;;;18.20;62.20;;;;;;5014985;28;20042;-62
2021/10/07 19:44:48;;;;;;;10.90;6.28;;;18.20;61.80;;;;;;5013600;28;20046;-62
2021/10/07 19:47:17;;;;;;;10.43;6.22;;;18.20;61.40;;;;;;5002019;28;20051;-62
2021/10/07 19:49:46;;;;;;;14.80;9.25;;;18.20;62.00;;;;;;5004608;28;20519;-62
2021/10/07 19:52:13;;;;;;;14.07;8.60;;;18.20;61.60;;;;;;5011732;28;20026;-61
2021/10/07 19:54:39;;;;;;;35.35;16.08;;;18.20;61.40;;;;;;5012999;28;20120;-62
2021/10/07 19:57:05;;;;;;;20.13;12.00;;;18.10;60.20;;;;;;5003549;28;20066;-62
2021/10/07 19:59:30;;;;;;;15.30;7.95;;;18.10;60.50;;;;;;5019169;28;20120;-62
2021/10/07 20:01:56;;;;;;;11.85;7.72;;;18.10;60.00;;;;;;5033349;28;20034;-62
2021/10/07 20:04:21;;;;;;;11.52;6.47;;;18.20;61.10;;;;;;5033833;28;20110;-62
2021/10/07 20:06:47;;;;;;;9.65;6.47;;;18.20;61.40;;;;;;5032483;28;20041;-62
2021/10/07 20:09:12;;;;;;;7.53;5.47;;;18.20;60.90;;;;;;5034070;28;20030;-62
2021/10/07 20:11:38;;;;;;;6.95;5.55;;;18.20;61.20;;;;;;5034491;28;20041;-62
2021/10/07 20:14:05;;;;;;;9.25;5.55;;;18.10;60.90;;;;;;5032993;28;20037;-62
2021/10/07 20:16:32;;;;;;;7.97;5.70;;;18.10;61.10;;;;;;5032755;28;20453;-61
2021/10/07 20:18:58;;;;;;;8.07;5.57;;;18.10;61.90;;;;;;5034224;28;20044;-62
2021/10/07 20:21:24;;;;;;;5.90;4.80;;;18.00;61.30;;;;;;5033721;28;20046;-62
2021/10/07 20:23:49;;;;;;;5.30;3.58;;;18.00;60.80;;;;;;5033943;28;20470;-62
2021/10/07 20:26:15;;;;;;;5.00;3.60;;;18.00;59.90;;;;;;5032972;28;20045;-62
2021/10/07 20:28:43;;;;;;;4.63;3.72;;;18.00;59.40;;;;;;5034601;28;20030;-62
2021/10/07 20:31:09;;;;;;;6.63;4.57;;;18.00;60.30;;;;;;5033616;28;20052;-62
2021/10/07 20:39:04;;;;;;;4.47;3.33;;;18.00;62.00;;;;;;5027645;28;20141;-62
2021/10/07 20:41:30;;;;;;;4.18;3.13;;;18.00;61.80;;;;;;5022282;28;20068;-62
2021/10/07 20:43:55;;;;;;;5.63;3.40;;;18.00;60.80;;;;;;5023079;28;20045;-62
2021/10/07 20:46:21;;;;;;;8.73;3.50;;;18.00;61.90;;;;;;5032546;28;20048;-62
2021/10/07 20:48:46;;;;;;;4.93;3.25;;;18.00;60.20;;;;;;5033784;28;20183;-62
2021/10/07 20:51:12;;;;;;;4.57;3.17;;;18.00;60.60;;;;;;5033202;28;20509;-62
2021/10/07 20:53:38;;;;;;;4.82;3.50;;;18.00;60.70;;;;;;5032633;28;20053;-62
2021/10/07 20:56:04;;;;;;;5.88;3.20;;;18.00;61.50;;;;;;5015043;28;20399;-62
2021/10/07 20:58:30;;;;;;;5.50;3.92;;;18.00;61.20;;;;;;5033715;28;20055;-62
2021/10/07 21:00:56;;;;;;;5.78;3.30;;;18.00;62.00;;;;;;5020818;28;20467;-62
2021/10/07 21:03:21;;;;;;;5.05;3.15;;;18.00;61.30;;;;;;5030991;28;20029;-62
2021/10/07 21:05:47;;;;;;;3.92;3.00;;;18.00;61.20;;;;;;5026423;28;20038;-62
2021/10/07 21:08:12;;;;;;;4.35;3.20;;;18.00;60.20;;;;;;5033392;28;20454;-61
2021/10/07 21:10:38;;;;;;;7.50;3.30;;;18.00;61.60;;;;;;5014182;28;20052;-62
2021/10/07 21:13:04;;;;;;;4.38;3.78;;;18.00;61.30;;;;;;5031571;28;20037;-62
2021/10/07 21:15:29;;;;;;;6.63;3.55;;;18.00;62.10;;;;;;5024171;28;20046;-62
2021/10/07 21:17:55;;;;;;;5.95;3.15;;;18.10;62.70;;;;;;5032362;28;20060;-62
2021/10/07 21:20:22;;;;;;;6.63;3.60;;;18.00;62.40;;;;;;5032381;28;20030;-62
2021/10/07 21:22:48;;;;;;;4.05;3.28;;;18.00;62.70;;;;;;5027962;28;20037;-62
2021/10/07 21:25:15;;;;;;;3.90;2.80;;;18.00;63.00;;;;;;5033200;28;20029;-62
2021/10/07 21:27:40;;;;;;;4.22;3.17;;;18.00;63.20;;;;;;5032397;28;20125;-62
2021/10/07 21:30:08;;;;;;;6.25;3.40;;;18.00;63.30;;;;;;5033196;28;20514;-62
2021/10/07 21:32:34;;;;;;;6.85;3.20;;;18.00;64.00;;;;;;5031184;28;20041;-62
2021/10/07 21:35:00;;;;;;;5.03;2.60;;;18.00;64.40;;;;;;5033161;28;20030;-61
2021/10/07 21:37:26;;;;;;;4.15;2.33;;;18.00;63.40;;;;;;5031490;28;20061;-61
2021/10/07 21:39:53;;;;;;;5.20;2.97;;;18.00;61.20;;;;;;5031550;28;20065;-62
2021/10/07 21:42:19;;;;;;;4.88;2.75;;;18.00;61.20;;;;;;5030982;28;20045;-62
2021/10/07 21:44:45;;;;;;;3.63;2.58;;;17.90;60.30;;;;;;5032834;28;20034;-62
2021/10/07 21:47:11;;;;;;;3.55;3.17;;;17.90;60.10;;;;;;5031498;28;20098;-62
2021/10/07 21:49:37;;;;;;;4.40;2.80;;;18.00;60.10;;;;;;5032702;28;20045;-62
2021/10/07 21:52:03;;;;;;;3.63;2.38;;;17.90;60.00;;;;;;5029415;28;20029;-61
2021/10/07 21:54:29;;;;;;;5.53;2.75;;;17.90;57.60;;;;;;5033009;28;20061;-62
2021/10/07 21:56:54;;;;;;;5.53;2.90;;;17.90;58.40;;;;;;5032270;28;20033;-62
2021/10/07 21:59:20;;;;;;;3.38;2.63;;;17.80;57.60;;;;;;5032094;28;20038;-62
2021/10/07 22:01:45;;;;;;;4.05;2.33;;;17.90;57.30;;;;;;5031547;28;20067;-62
2021/10/07 22:04:11;;;;;;;3.55;2.63;;;17.70;55.80;;;;;;5032070;28;20069;-62
2021/10/07 22:06:36;;;;;;;6.75;4.72;;;17.80;58.80;;;;;;5032026;28;20045;-62
2021/10/07 22:09:02;;;;;;;8.57;3.92;;;17.80;59.90;;;;;;5033190;28;20033;-62
2021/10/07 22:11:31;;;;;;;5.10;3.28;;;17.70;56.90;;;;;;5031323;28;20186;-62
2021/10/07 22:13:56;;;;;;;6.50;3.28;;;17.80;55.90;;;;;;5012530;28;20064;-62
2021/10/07 22:16:22;;;;;;;5.00;3.55;;;17.70;55.90;;;;;;5026080;28;20045;-62
2021/10/07 22:18:48;;;;;;;5.07;3.88;;;17.70;56.60;;;;;;5032199;28;20057;-62
2021/10/07 22:21:13;;;;;;;6.70;3.63;;;17.70;58.30;;;;;;5031367;28;20049;-61
2021/10/07 22:23:39;;;;;;;5.05;3.65;;;17.70;61.00;;;;;;5032473;28;20064;-61
2021/10/07 22:26:05;;;;;;;4.38;3.92;;;17.60;58.40;;;;;;5031659;28;20136;-62
2021/10/07 22:28:31;;;;;;;5.93;4.13;;;17.60;58.00;;;;;;5032504;28;20038;-62
2021/10/07 22:30:56;;;;;;;7.57;3.80;;;17.70;58.40;;;;;;5031099;28;20498;-62
2021/10/07 22:33:22;;;;;;;5.07;3.38;;;17.70;58.20;;;;;;5032492;28;20116;-61
2021/10/07 22:35:48;;;;;;;4.85;3.42;;;17.70;57.80;;;;;;5031084;28;20072;-61
2021/10/07 22:38:14;;;;;;;9.30;3.88;;;17.80;58.00;;;;;;5032082;28;20042;-61
2021/10/07 22:40:39;;;;;;;4.25;3.13;;;17.80;58.30;;;;;;5030857;28;20389;-61
2021/10/07 22:43:05;;;;;;;6.65;3.63;;;17.80;58.90;;;;;;5031504;28;20558;-62
2021/10/07 22:45:31;;;;;;;4.50;3.28;;;17.70;58.60;;;;;;5031956;28;20056;-61
2021/10/07 22:47:56;;;;;;;4.68;2.90;;;17.60;57.40;;;;;;5030095;28;20049;-61
2021/10/07 22:50:22;;;;;;;5.07;3.00;;;17.60;56.90;;;;;;5031541;28;20030;-61
2021/10/07 22:52:47;;;;;;;4.90;2.92;;;17.60;58.00;;;;;;5031159;28;20048;-61
2021/10/07 22:55:13;;;;;;;6.45;3.00;;;17.70;58.00;;;;;;5032229;28;20029;-62
2021/10/07 22:57:39;;;;;;;5.00;3.42;;;17.70;58.90;;;;;;5031201;28;20049;-61
2021/10/07 23:00:06;;;;;;;5.65;3.35;;;17.70;58.10;;;;;;5032479;28;20049;-62
2021/10/07 23:02:32;;;;;;;5.60;3.67;;;17.70;59.00;;;;;;5030979;28;20041;-62
2021/10/07 23:04:57;;;;;;;5.88;3.58;;;17.70;59.40;;;;;;5031750;28;20042;-61
2021/10/07 23:07:23;;;;;;;5.63;3.15;;;17.70;59.50;;;;;;5028404;28;20049;-61
2021/10/07 23:09:48;;;;;;;4.80;3.13;;;17.70;59.60;;;;;;5031972;28;20092;-61
2021/10/07 23:12:14;;;;;;;6.40;3.00;;;17.60;59.40;;;;;;5031374;28;20049;-62
2021/10/07 23:14:39;;;;;;;4.05;3.35;;;17.60;58.90;;;;;;5031393;28;20045;-62
2021/10/07 23:17:05;;;;;;;6.05;2.78;;;17.60;59.30;;;;;;5034515;28;20466;-62
2021/10/07 23:19:31;;;;;;;4.28;2.50;;;17.50;59.20;;;;;;5035233;28;20041;-61
2021/10/07 23:21:56;;;;;;;4.35;2.88;;;17.50;58.40;;;;;;5034095;28;20120;-62
2021/10/07 23:24:22;;;;;;;3.78;2.85;;;17.50;58.40;;;;;;5035022;28;20064;-62
2021/10/07 23:26:48;;;;;;;3.35;2.95;;;17.40;60.60;;;;;;5034483;28;20528;-62
2021/10/07 23:29:14;;;;;;;3.95;2.50;;;17.40;59.30;;;;;;5035357;28;20034;-62
2021/10/07 23:31:39;;;;;;;4.50;2.53;;;17.40;58.90;;;;;;5022018;28;20099;-62
2021/10/07 23:34:05;;;;;;;2.65;2.40;;;17.40;59.70;;;;;;5028465;28;20038;-61
2021/10/07 23:36:30;;;;;;;3.00;2.53;;;17.40;59.60;;;;;;5034712;28;20044;-62
2021/10/07 23:38:56;;;;;;;6.35;2.45;;;17.30;59.60;;;;;;5034220;28;20112;-61
2021/10/07 23:41:21;;;;;;;3.85;2.88;;;17.30;58.20;;;;;;5034342;28;20452;-62
2021/10/07 23:43:47;;;;;;;3.15;2.35;;;17.20;57.90;;;;;;5035057;28;20048;-61
2021/10/07 23:46:13;;;;;;;4.95;2.40;;;17.20;57.70;;;;;;5034739;28;20069;-61
2021/10/07 23:48:38;;;;;;;5.82;2.40;;;17.20;56.10;;;;;;5035269;28;20495;-62
2021/10/07 23:51:05;;;;;;;5.22;2.83;;;17.10;56.00;;;;;;5034700;28;20112;-62
2021/10/07 23:53:31;;;;;;;4.78;2.55;;;17.10;55.30;;;;;;5017222;28;20040;-62
2021/10/07 23:55:57;;;;;;;7.28;3.08;;;17.10;55.40;;;;;;5034189;28;20033;-62
2021/10/07 23:58:22;;;;;;;6.75;2.90;;;17.10;55.40;;;;;;5019328;28;20034;-61
